sensor_id;sensor_type;location;lat;lon;timestamp;P1;durP1;ratioP1;P2;durP2;ratioP2
65822;SDS011;52585;47.566;19.056;2022-12-19T00:00:46;30.50;;;18.00;;
65822;SDS011;52585;47.566;19.056;2022-12-19T00:03:13;33.00;;;17.20;;
65822;SDS011;52585;47.566;19.056;2022-12-19T00:05:40;32.20;;;17.20;;
65822;SDS011;52585;47.566;19.056;2022-12-19T00:08:13;35.60;;;18.20;;
65822;SDS011;52585;47.566;19.056;2022-12-19T00:10:41;34.40;;;18.00;;
65822;SDS011;52585;47.566;19.056;2022-12-19T00:13:08;28.40;;;17.10;;
65822;SDS011;52585;47.566;19.056;2022-12-19T00:15:34;33.10;;;17.20;;
65822;SDS011;52585;47.566;19.056;2022-12-19T00:18:00;34.30;;;17.90;;
65822;SDS011;52585;47.566;19.056;2022-12-19T00:20:26;34.40;;;17.60;;
65822;SDS011;52585;47.566;19.056;2022-12-19T00:22:51;34.60;;;18.60;;
65822;SDS011;52585;47.566;19.056;2022-12-19T00:25:17;34.10;;;18.10;;
65822;SDS011;52585;47.566;19.056;2022-12-19T00:27:42;40.50;;;20.20;;
65822;SDS011;52585;47.566;19.056;2022-12-19T00:30:09;41.30;;;20.10;;
65822;SDS011;52585;47.566;19.056;2022-12-19T00:32:36;37.00;;;19.00;;
65822;SDS011;52585;47.566;19.056;2022-12-19T00:35:01;36.40;;;21.10;;
65822;SDS011;52585;47.566;19.056;2022-12-19T00:37:27;39.20;;;20.80;;
65822;SDS011;52585;47.566;19.056;2022-12-19T00:39:53;39.10;;;20.20;;
65822;SDS011;52585;47.566;19.056;2022-12-19T00:42:18;43.10;;;21.40;;
65822;SDS011;52585;47.566;19.056;2022-12-19T00:44:44;40.70;;;20.90;;
65822;SDS011;52585;47.566;19.056;2022-12-19T00:47:11;38.90;;;20.80;;
65822;SDS011;52585;47.566;19.056;2022-12-19T00:49:36;40.70;;;21.70;;
65822;SDS011;52585;47.566;19.056;2022-12-19T00:52:02;38.50;;;21.20;;
65822;SDS011;52585;47.566;19.056;2022-12-19T00:54:27;35.80;;;20.80;;
65822;SDS011;52585;47.566;19.056;2022-12-19T00:56:53;38.20;;;20.60;;
65822;SDS011;52585;47.566;19.056;2022-12-19T00:59:18;40.00;;;20.70;;
65822;SDS011;52585;47.566;19.056;2022-12-19T01:01:44;41.00;;;20.10;;
65822;SDS011;52585;47.566;19.056;2022-12-19T01:04:12;36.10;;;20.90;;
65822;SDS011;52585;47.566;19.056;2022-12-19T01:06:39;37.10;;;19.30;;
65822;SDS011;52585;47.566;19.056;2022-12-19T01:09:05;37.20;;;19.90;;
65822;SDS011;52585;47.566;19.056;2022-12-19T01:11:30;41.50;;;20.40;;
65822;SDS011;52585;47.566;19.056;2022-12-19T01:14:14;37.60;;;17.90;;
65822;SDS011;52585;47.566;19.056;2022-12-19T01:16:40;38.50;;;20.10;;
65822;SDS011;52585;47.566;19.056;2022-12-19T01:19:06;34.60;;;19.40;;
65822;SDS011;52585;47.566;19.056;2022-12-19T01:21:32;37.30;;;19.20;;
65822;SDS011;52585;47.566;19.056;2022-12-19T01:23:57;38.70;;;20.20;;
65822;SDS011;52585;47.566;19.056;2022-12-19T01:26:23;38.60;;;19.80;;
65822;SDS011;52585;47.566;19.056;2022-12-19T01:28:48;42.40;;;20.90;;
65822;SDS011;52585;47.566;19.056;2022-12-19T01:31:14;39.70;;;20.20;;
65822;SDS011;52585;47.566;19.056;2022-12-19T01:33:40;40.60;;;19.40;;
65822;SDS011;52585;47.566;19.056;2022-12-19T01:36:06;35.60;;;18.50;;
65822;SDS011;52585;47.566;19.056;2022-12-19T01:38:36;38.70;;;20.80;;
65822;SDS011;52585;47.566;19.056;2022-12-19T01:41:02;34.20;;;18.80;;
65822;SDS011;52585;47.566;19.056;2022-12-19T01:43:30;43.00;;;20.50;;
65822;SDS011;52585;47.566;19.056;2022-12-19T01:46:00;37.80;;;19.90;;
65822;SDS011;52585;47.566;19.056;2022-12-19T01:48:33;41.40;;;20.20;;
65822;SDS011;52585;47.566;19.056;2022-12-19T01:51:06;38.50;;;19.10;;
65822;SDS011;52585;47.566;19.056;2022-12-19T01:53:51;32.80;;;18.30;;
65822;SDS011;52585;47.566;19.056;2022-12-19T01:56:27;32.90;;;17.00;;
65822;SDS011;52585;47.566;19.056;2022-12-19T01:58:57;39.40;;;19.40;;
65822;SDS011;52585;47.566;19.056;2022-12-19T02:01:26;38.90;;;19.20;;
65822;SDS011;52585;47.566;19.056;2022-12-19T02:03:53;42.50;;;19.80;;
65822;SDS011;52585;47.566;19.056;2022-12-19T02:06:21;36.70;;;19.10;;
65822;SDS011;52585;47.566;19.056;2022-12-19T02:08:47;37.00;;;17.80;;
65822;SDS011;52585;47.566;19.056;2022-12-19T02:11:14;33.70;;;17.40;;
65822;SDS011;52585;47.566;19.056;2022-12-19T02:13:40;40.80;;;18.60;;
65822;SDS011;52585;47.566;19.056;2022-12-19T02:16:28;39.60;;;19.10;;
65822;SDS011;52585;47.566;19.056;2022-12-19T02:19:42;37.30;;;17.80;;
65822;SDS011;52585;47.566;19.056;2022-12-19T02:25:52;32.50;;;17.10;;
65822;SDS011;52585;47.566;19.056;2022-12-19T02:28:50;33.20;;;16.20;;
65822;SDS011;52585;47.566;19.056;2022-12-19T02:31:48;30.40;;;15.50;;
65822;SDS011;52585;47.566;19.056;2022-12-19T02:34:43;31.40;;;15.30;;
65822;SDS011;52585;47.566;19.056;2022-12-19T02:37:13;33.00;;;16.10;;
65822;SDS011;52585;47.566;19.056;2022-12-19T02:42:44;32.10;;;16.20;;
65822;SDS011;52585;47.566;19.056;2022-12-19T02:45:14;42.00;;;19.20;;
65822;SDS011;52585;47.566;19.056;2022-12-19T02:47:42;46.70;;;20.90;;
65822;SDS011;52585;47.566;19.056;2022-12-19T02:50:10;42.60;;;20.00;;
65822;SDS011;52585;47.566;19.056;2022-12-19T02:55:16;33.90;;;16.70;;
65822;SDS011;52585;47.566;19.056;2022-12-19T02:58:13;32.00;;;17.00;;
65822;SDS011;52585;47.566;19.056;2022-12-19T03:00:54;29.40;;;14.70;;
65822;SDS011;52585;47.566;19.056;2022-12-19T03:03:44;26.20;;;14.40;;
65822;SDS011;52585;47.566;19.056;2022-12-19T03:06:28;26.40;;;14.00;;
65822;SDS011;52585;47.566;19.056;2022-12-19T03:09:05;28.80;;;13.70;;
65822;SDS011;52585;47.566;19.056;2022-12-19T03:11:37;29.10;;;14.00;;
65822;SDS011;52585;47.566;19.056;2022-12-19T03:14:08;29.20;;;14.90;;
65822;SDS011;52585;47.566;19.056;2022-12-19T03:16:38;27.50;;;15.10;;
65822;SDS011;52585;47.566;19.056;2022-12-19T03:19:07;27.30;;;14.60;;
65822;SDS011;52585;47.566;19.056;2022-12-19T03:21:40;28.80;;;14.90;;
65822;SDS011;52585;47.566;19.056;2022-12-19T03:24:11;30.90;;;15.00;;
65822;SDS011;52585;47.566;19.056;2022-12-19T03:27:07;32.30;;;15.70;;
65822;SDS011;52585;47.566;19.056;2022-12-19T03:30:05;33.10;;;16.00;;
65822;SDS011;52585;47.566;19.056;2022-12-19T03:32:37;36.10;;;16.70;;
65822;SDS011;52585;47.566;19.056;2022-12-19T03:35:24;34.20;;;16.60;;
65822;SDS011;52585;47.566;19.056;2022-12-19T03:37:55;38.00;;;17.10;;
65822;SDS011;52585;47.566;19.056;2022-12-19T03:40:26;33.50;;;18.00;;
65822;SDS011;52585;47.566;19.056;2022-12-19T03:42:59;35.10;;;17.30;;
65822;SDS011;52585;47.566;19.056;2022-12-19T03:51:06;35.30;;;16.60;;
65822;SDS011;52585;47.566;19.056;2022-12-19T03:56:40;29.70;;;15.30;;
65822;SDS011;52585;47.566;19.056;2022-12-19T03:59:20;34.50;;;16.40;;
65822;SDS011;52585;47.566;19.056;2022-12-19T04:01:56;29.60;;;15.70;;
65822;SDS011;52585;47.566;19.056;2022-12-19T04:04:24;38.30;;;20.30;;
65822;SDS011;52585;47.566;19.056;2022-12-19T04:06:52;49.00;;;21.90;;
65822;SDS011;52585;47.566;19.056;2022-12-19T04:09:21;47.80;;;21.60;;
65822;SDS011;52585;47.566;19.056;2022-12-19T04:12:02;45.00;;;21.40;;
65822;SDS011;52585;47.566;19.056;2022-12-19T04:14:33;38.60;;;19.50;;
65822;SDS011;52585;47.566;19.056;2022-12-19T04:20:08;34.80;;;17.80;;
65822;SDS011;52585;47.566;19.056;2022-12-19T04:25:44;35.70;;;17.50;;
65822;SDS011;52585;47.566;19.056;2022-12-19T04:28:21;36.20;;;18.70;;
65822;SDS011;52585;47.566;19.056;2022-12-19T04:30:50;37.60;;;19.20;;
65822;SDS011;52585;47.566;19.056;2022-12-19T04:33:17;34.70;;;18.30;;
65822;SDS011;52585;47.566;19.056;2022-12-19T04:35:43;40.50;;;19.10;;
65822;SDS011;52585;47.566;19.056;2022-12-19T04:38:09;39.50;;;19.70;;
65822;SDS011;52585;47.566;19.056;2022-12-19T04:40:35;36.90;;;19.40;;
65822;SDS011;52585;47.566;19.056;2022-12-19T04:43:01;40.60;;;19.90;;
65822;SDS011;52585;47.566;19.056;2022-12-19T04:45:26;41.80;;;19.30;;
65822;SDS011;52585;47.566;19.056;2022-12-19T04:47:52;38.80;;;19.30;;
65822;SDS011;52585;47.566;19.056;2022-12-19T04:50:17;41.80;;;19.70;;
65822;SDS011;52585;47.566;19.056;2022-12-19T04:52:43;38.40;;;19.40;;
65822;SDS011;52585;47.566;19.056;2022-12-19T04:55:09;45.00;;;20.80;;
65822;SDS011;52585;47.566;19.056;2022-12-19T04:57:34;43.90;;;20.50;;
65822;SDS011;52585;47.566;19.056;2022-12-19T05:00:00;44.50;;;21.10;;
65822;SDS011;52585;47.566;19.056;2022-12-19T05:02:28;43.80;;;19.90;;
65822;SDS011;52585;47.566;19.056;2022-12-19T05:04:54;41.20;;;19.40;;
65822;SDS011;52585;47.566;19.056;2022-12-19T05:07:20;48.10;;;21.60;;
65822;SDS011;52585;47.566;19.056;2022-12-19T05:09:45;54.20;;;24.10;;
65822;SDS011;52585;47.566;19.056;2022-12-19T05:12:11;49.40;;;24.00;;
65822;SDS011;52585;47.566;19.056;2022-12-19T05:14:36;54.50;;;24.40;;
65822;SDS011;52585;47.566;19.056;2022-12-19T05:17:02;44.40;;;22.50;;
65822;SDS011;52585;47.566;19.056;2022-12-19T05:19:28;39.00;;;20.40;;
65822;SDS011;52585;47.566;19.056;2022-12-19T05:21:54;39.10;;;18.50;;
65822;SDS011;52585;47.566;19.056;2022-12-19T05:24:19;41.80;;;20.10;;
65822;SDS011;52585;47.566;19.056;2022-12-19T05:26:46;43.90;;;20.50;;
65822;SDS011;52585;47.566;19.056;2022-12-19T05:29:13;40.20;;;19.90;;
65822;SDS011;52585;47.566;19.056;2022-12-19T05:31:39;42.40;;;21.00;;
65822;SDS011;52585;47.566;19.056;2022-12-19T05:34:05;41.10;;;19.70;;
65822;SDS011;52585;47.566;19.056;2022-12-19T05:36:30;39.50;;;20.60;;
65822;SDS011;52585;47.566;19.056;2022-12-19T05:38:56;38.60;;;20.10;;
65822;SDS011;52585;47.566;19.056;2022-12-19T05:41:21;35.70;;;19.10;;
65822;SDS011;52585;47.566;19.056;2022-12-19T05:43:52;38.40;;;19.30;;
65822;SDS011;52585;47.566;19.056;2022-12-19T05:46:21;42.10;;;20.40;;
65822;SDS011;52585;47.566;19.056;2022-12-19T05:48:48;40.50;;;18.60;;
65822;SDS011;52585;47.566;19.056;2022-12-19T05:51:14;43.20;;;19.30;;
65822;SDS011;52585;47.566;19.056;2022-12-19T05:53:40;43.20;;;20.00;;
65822;SDS011;52585;47.566;19.056;2022-12-19T05:56:10;43.20;;;19.30;;
65822;SDS011;52585;47.566;19.056;2022-12-19T05:58:39;42.20;;;19.30;;
65822;SDS011;52585;47.566;19.056;2022-12-19T06:01:12;46.50;;;21.00;;
65822;SDS011;52585;47.566;19.056;2022-12-19T06:03:39;55.80;;;23.20;;
65822;SDS011;52585;47.566;19.056;2022-12-19T06:06:08;53.30;;;24.30;;
65822;SDS011;52585;47.566;19.056;2022-12-19T06:08:36;44.70;;;19.60;;
65822;SDS011;52585;47.566;19.056;2022-12-19T06:11:04;37.00;;;18.80;;
65822;SDS011;52585;47.566;19.056;2022-12-19T06:13:33;36.40;;;17.90;;
65822;SDS011;52585;47.566;19.056;2022-12-19T06:16:05;38.20;;;19.00;;
65822;SDS011;52585;47.566;19.056;2022-12-19T06:18:37;37.60;;;17.80;;
65822;SDS011;52585;47.566;19.056;2022-12-19T06:21:06;35.90;;;18.70;;
65822;SDS011;52585;47.566;19.056;2022-12-19T06:23:43;41.00;;;18.30;;
65822;SDS011;52585;47.566;19.056;2022-12-19T06:26:12;38.90;;;17.50;;
65822;SDS011;52585;47.566;19.056;2022-12-19T06:28:39;41.30;;;18.90;;
65822;SDS011;52585;47.566;19.056;2022-12-19T06:31:06;38.90;;;17.80;;
65822;SDS011;52585;47.566;19.056;2022-12-19T06:33:32;36.50;;;17.20;;
65822;SDS011;52585;47.566;19.056;2022-12-19T06:36:05;37.90;;;18.60;;
65822;SDS011;52585;47.566;19.056;2022-12-19T06:38:34;36.20;;;18.80;;
65822;SDS011;52585;47.566;19.056;2022-12-19T06:41:01;38.90;;;17.70;;
65822;SDS011;52585;47.566;19.056;2022-12-19T06:43:46;37.00;;;17.80;;
65822;SDS011;52585;47.566;19.056;2022-12-19T06:46:11;39.10;;;19.70;;
65822;SDS011;52585;47.566;19.056;2022-12-19T06:48:37;44.20;;;20.70;;
65822;SDS011;52585;47.566;19.056;2022-12-19T06:51:03;47.70;;;21.00;;
65822;SDS011;52585;47.566;19.056;2022-12-19T06:53:29;52.30;;;24.00;;
65822;SDS011;52585;47.566;19.056;2022-12-19T06:55:56;48.90;;;22.50;;
65822;SDS011;52585;47.566;19.056;2022-12-19T06:58:23;43.90;;;22.00;;
65822;SDS011;52585;47.566;19.056;2022-12-19T07:00:49;41.40;;;18.90;;
65822;SDS011;52585;47.566;19.056;2022-12-19T07:03:19;34.50;;;17.80;;
65822;SDS011;52585;47.566;19.056;2022-12-19T07:05:49;35.30;;;18.20;;
65822;SDS011;52585;47.566;19.056;2022-12-19T07:08:14;37.20;;;16.80;;
65822;SDS011;52585;47.566;19.056;2022-12-19T07:10:40;36.80;;;18.00;;
65822;SDS011;52585;47.566;19.056;2022-12-19T07:13:06;38.10;;;18.20;;
65822;SDS011;52585;47.566;19.056;2022-12-19T07:15:32;36.60;;;17.10;;
65822;SDS011;52585;47.566;19.056;2022-12-19T07:18:00;33.30;;;17.00;;
65822;SDS011;52585;47.566;19.056;2022-12-19T07:20:32;35.60;;;17.40;;
65822;SDS011;52585;47.566;19.056;2022-12-19T07:23:01;33.70;;;14.60;;
65822;SDS011;52585;47.566;19.056;2022-12-19T07:25:28;34.20;;;17.10;;
65822;SDS011;52585;47.566;19.056;2022-12-19T07:27:54;30.80;;;15.60;;
65822;SDS011;52585;47.566;19.056;2022-12-19T07:30:20;33.70;;;16.70;;
65822;SDS011;52585;47.566;19.056;2022-12-19T07:32:46;42.60;;;20.10;;
65822;SDS011;52585;47.566;19.056;2022-12-19T07:35:12;39.90;;;18.80;;
65822;SDS011;52585;47.566;19.056;2022-12-19T07:37:38;34.90;;;16.90;;
65822;SDS011;52585;47.566;19.056;2022-12-19T07:40:04;32.70;;;16.90;;
65822;SDS011;52585;47.566;19.056;2022-12-19T07:42:30;31.50;;;16.10;;
65822;SDS011;52585;47.566;19.056;2022-12-19T07:44:56;24.50;;;13.90;;
65822;SDS011;52585;47.566;19.056;2022-12-19T07:47:21;29.60;;;14.60;;
65822;SDS011;52585;47.566;19.056;2022-12-19T07:49:47;25.90;;;13.50;;
65822;SDS011;52585;47.566;19.056;2022-12-19T07:52:12;23.50;;;12.70;;
65822;SDS011;52585;47.566;19.056;2022-12-19T07:54:38;25.10;;;13.20;;
65822;SDS011;52585;47.566;19.056;2022-12-19T07:57:05;20.90;;;12.40;;
65822;SDS011;52585;47.566;19.056;2022-12-19T07:59:30;21.00;;;10.90;;
65822;SDS011;52585;47.566;19.056;2022-12-19T08:01:56;21.70;;;11.30;;
65822;SDS011;52585;47.566;19.056;2022-12-19T08:04:21;20.80;;;10.60;;
65822;SDS011;52585;47.566;19.056;2022-12-19T08:06:47;20.00;;;11.40;;
65822;SDS011;52585;47.566;19.056;2022-12-19T08:09:13;20.50;;;10.40;;
65822;SDS011;52585;47.566;19.056;2022-12-19T08:11:39;17.50;;;9.80;;
65822;SDS011;52585;47.566;19.056;2022-12-19T08:14:04;18.00;;;10.70;;
65822;SDS011;52585;47.566;19.056;2022-12-19T08:16:30;18.60;;;10.10;;
65822;SDS011;52585;47.566;19.056;2022-12-19T08:18:56;19.40;;;10.00;;
65822;SDS011;52585;47.566;19.056;2022-12-19T08:21:22;21.40;;;10.80;;
65822;SDS011;52585;47.566;19.056;2022-12-19T08:23:48;20.30;;;10.20;;
65822;SDS011;52585;47.566;19.056;2022-12-19T08:26:16;19.30;;;10.50;;
65822;SDS011;52585;47.566;19.056;2022-12-19T08:28:51;20.90;;;10.80;;
65822;SDS011;52585;47.566;19.056;2022-12-19T08:31:18;19.50;;;10.20;;
65822;SDS011;52585;47.566;19.056;2022-12-19T08:33:44;20.90;;;11.20;;
65822;SDS011;52585;47.566;19.056;2022-12-19T08:36:14;18.30;;;10.20;;
65822;SDS011;52585;47.566;19.056;2022-12-19T08:38:43;20.90;;;10.30;;
65822;SDS011;52585;47.566;19.056;2022-12-19T08:41:10;16.70;;;10.00;;
65822;SDS011;52585;47.566;19.056;2022-12-19T08:43:36;16.60;;;9.60;;
65822;SDS011;52585;47.566;19.056;2022-12-19T08:46:03;20.70;;;11.20;;
65822;SDS011;52585;47.566;19.056;2022-12-19T08:48:33;19.60;;;9.60;;
65822;SDS011;52585;47.566;19.056;2022-12-19T08:51:04;21.10;;;10.60;;
65822;SDS011;52585;47.566;19.056;2022-12-19T08:53:35;21.40;;;10.70;;
65822;SDS011;52585;47.566;19.056;2022-12-19T08:58:36;16.60;;;10.40;;
65822;SDS011;52585;47.566;19.056;2022-12-19T09:01:05;19.20;;;11.10;;
65822;SDS011;52585;47.566;19.056;2022-12-19T09:03:36;16.80;;;10.30;;
65822;SDS011;52585;47.566;19.056;2022-12-19T09:06:04;18.90;;;10.10;;
65822;SDS011;52585;47.566;19.056;2022-12-19T09:08:32;21.20;;;9.80;;
65822;SDS011;52585;47.566;19.056;2022-12-19T09:11:05;20.80;;;10.40;;
65822;SDS011;52585;47.566;19.056;2022-12-19T09:13:35;18.00;;;9.90;;
65822;SDS011;52585;47.566;19.056;2022-12-19T09:16:20;16.80;;;10.40;;
65822;SDS011;52585;47.566;19.056;2022-12-19T09:18:52;18.70;;;9.40;;
65822;SDS011;52585;47.566;19.056;2022-12-19T09:21:20;21.90;;;11.00;;
65822;SDS011;52585;47.566;19.056;2022-12-19T09:23:53;20.60;;;10.50;;
65822;SDS011;52585;47.566;19.056;2022-12-19T09:26:22;19.40;;;10.10;;
65822;SDS011;52585;47.566;19.056;2022-12-19T09:28:50;20.10;;;10.60;;
65822;SDS011;52585;47.566;19.056;2022-12-19T09:31:18;20.50;;;10.80;;
65822;SDS011;52585;47.566;19.056;2022-12-19T09:33:47;20.70;;;10.70;;
65822;SDS011;52585;47.566;19.056;2022-12-19T09:36:15;19.20;;;9.70;;
65822;SDS011;52585;47.566;19.056;2022-12-19T09:38:42;15.50;;;9.60;;
65822;SDS011;52585;47.566;19.056;2022-12-19T09:47:26;18.30;;;9.50;;
65822;SDS011;52585;47.566;19.056;2022-12-19T09:49:56;17.40;;;9.60;;
65822;SDS011;52585;47.566;19.056;2022-12-19T09:55:27;16.50;;;9.20;;
65822;SDS011;52585;47.566;19.056;2022-12-19T10:00:57;15.80;;;9.70;;
65822;SDS011;52585;47.566;19.056;2022-12-19T10:03:38;16.60;;;9.80;;
65822;SDS011;52585;47.566;19.056;2022-12-19T10:06:17;16.80;;;10.00;;
65822;SDS011;52585;47.566;19.056;2022-12-19T10:08:45;18.50;;;9.50;;
65822;SDS011;52585;47.566;19.056;2022-12-19T10:17:02;20.40;;;10.10;;
65822;SDS011;52585;47.566;19.056;2022-12-19T10:22:47;17.30;;;9.80;;
65822;SDS011;52585;47.566;19.056;2022-12-19T10:26:11;17.40;;;9.50;;
65822;SDS011;52585;47.566;19.056;2022-12-19T10:34:01;17.80;;;9.30;;
65822;SDS011;52585;47.566;19.056;2022-12-19T10:36:44;16.90;;;9.50;;
65822;SDS011;52585;47.566;19.056;2022-12-19T10:39:26;17.30;;;9.50;;
65822;SDS011;52585;47.566;19.056;2022-12-19T10:44:52;17.60;;;10.00;;
65822;SDS011;52585;47.566;19.056;2022-12-19T10:47:21;15.50;;;9.50;;
65822;SDS011;52585;47.566;19.056;2022-12-19T10:49:47;22.20;;;11.10;;
65822;SDS011;52585;47.566;19.056;2022-12-19T10:52:13;21.20;;;10.20;;
65822;SDS011;52585;47.566;19.056;2022-12-19T10:54:41;18.20;;;10.30;;
65822;SDS011;52585;47.566;19.056;2022-12-19T10:57:18;19.60;;;9.30;;
65822;SDS011;52585;47.566;19.056;2022-12-19T10:59:57;18.60;;;10.40;;
65822;SDS011;52585;47.566;19.056;2022-12-19T11:02:48;19.40;;;10.80;;
65822;SDS011;52585;47.566;19.056;2022-12-19T11:05:26;17.40;;;9.60;;
65822;SDS011;52585;47.566;19.056;2022-12-19T11:08:15;18.50;;;9.60;;
65822;SDS011;52585;47.566;19.056;2022-12-19T11:10:54;17.60;;;9.80;;
65822;SDS011;52585;47.566;19.056;2022-12-19T11:16:09;18.10;;;9.70;;
65822;SDS011;52585;47.566;19.056;2022-12-19T11:18:46;17.20;;;10.00;;
65822;SDS011;52585;47.566;19.056;2022-12-19T11:24:02;17.00;;;10.00;;
65822;SDS011;52585;47.566;19.056;2022-12-19T11:26:49;18.80;;;10.10;;
65822;SDS011;52585;47.566;19.056;2022-12-19T11:29:18;19.60;;;10.70;;
65822;SDS011;52585;47.566;19.056;2022-12-19T11:31:58;17.90;;;10.20;;
65822;SDS011;52585;47.566;19.056;2022-12-19T11:34:31;18.40;;;9.70;;
65822;SDS011;52585;47.566;19.056;2022-12-19T11:39:47;18.10;;;10.20;;
65822;SDS011;52585;47.566;19.056;2022-12-19T11:42:33;18.50;;;10.80;;
65822;SDS011;52585;47.566;19.056;2022-12-19T11:47:52;17.00;;;11.20;;
65822;SDS011;52585;47.566;19.056;2022-12-19T11:50:33;19.20;;;10.00;;
65822;SDS011;52585;47.566;19.056;2022-12-19T11:53:50;18.10;;;9.90;;
65822;SDS011;52585;47.566;19.056;2022-12-19T11:56:02;16.80;;;10.10;;
65822;SDS011;52585;47.566;19.056;2022-12-19T11:58:33;16.50;;;10.20;;
65822;SDS011;52585;47.566;19.056;2022-12-19T12:07:08;18.30;;;10.50;;
65822;SDS011;52585;47.566;19.056;2022-12-19T12:12:31;19.10;;;11.20;;
65822;SDS011;52585;47.566;19.056;2022-12-19T12:17:57;21.20;;;11.90;;
65822;SDS011;52585;47.566;19.056;2022-12-19T12:29:42;21.70;;;11.80;;
65822;SDS011;52585;47.566;19.056;2022-12-19T12:32:46;19.10;;;10.50;;
65822;SDS011;52585;47.566;19.056;2022-12-19T12:35:36;18.10;;;10.60;;
65822;SDS011;52585;47.566;19.056;2022-12-19T12:46:04;17.30;;;9.20;;
65822;SDS011;52585;47.566;19.056;2022-12-19T12:51:24;19.70;;;10.50;;
65822;SDS011;52585;47.566;19.056;2022-12-19T12:53:58;17.40;;;10.90;;
65822;SDS011;52585;47.566;19.056;2022-12-19T12:56:32;16.00;;;9.20;;
65822;SDS011;52585;47.566;19.056;2022-12-19T13:01:52;16.00;;;10.50;;
65822;SDS011;52585;47.566;19.056;2022-12-19T13:04:41;15.30;;;9.60;;
65822;SDS011;52585;47.566;19.056;2022-12-19T13:07:34;15.20;;;9.90;;
65822;SDS011;52585;47.566;19.056;2022-12-19T13:10:20;16.90;;;9.50;;
65822;SDS011;52585;47.566;19.056;2022-12-19T13:13:00;16.50;;;9.70;;
65822;SDS011;52585;47.566;19.056;2022-12-19T13:15:34;19.60;;;10.30;;
65822;SDS011;52585;47.566;19.056;2022-12-19T13:18:27;16.70;;;9.40;;
65822;SDS011;52585;47.566;19.056;2022-12-19T13:21:00;15.70;;;9.10;;
65822;SDS011;52585;47.566;19.056;2022-12-19T13:23:43;18.90;;;10.10;;
65822;SDS011;52585;47.566;19.056;2022-12-19T13:26:41;18.50;;;9.60;;
65822;SDS011;52585;47.566;19.056;2022-12-19T13:29:33;16.20;;;9.80;;
65822;SDS011;52585;47.566;19.056;2022-12-19T13:32:15;16.90;;;9.80;;
65822;SDS011;52585;47.566;19.056;2022-12-19T13:34:51;17.00;;;10.10;;
65822;SDS011;52585;47.566;19.056;2022-12-19T13:37:21;18.80;;;10.60;;
65822;SDS011;52585;47.566;19.056;2022-12-19T13:42:26;19.60;;;10.50;;
65822;SDS011;52585;47.566;19.056;2022-12-19T13:45:27;16.90;;;9.50;;
65822;SDS011;52585;47.566;19.056;2022-12-19T13:48:00;17.70;;;10.20;;
65822;SDS011;52585;47.566;19.056;2022-12-19T13:52:57;19.60;;;10.20;;
65822;SDS011;52585;47.566;19.056;2022-12-19T13:55:27;18.70;;;10.70;;
65822;SDS011;52585;47.566;19.056;2022-12-19T13:57:54;21.30;;;11.40;;
65822;SDS011;52585;47.566;19.056;2022-12-19T14:00:30;18.00;;;10.60;;
65822;SDS011;52585;47.566;19.056;2022-12-19T14:03:00;19.20;;;12.00;;
65822;SDS011;52585;47.566;19.056;2022-12-19T14:05:32;21.10;;;11.50;;
65822;SDS011;52585;47.566;19.056;2022-12-19T14:08:02;20.10;;;11.00;;
65822;SDS011;52585;47.566;19.056;2022-12-19T14:10:33;19.40;;;11.10;;
65822;SDS011;52585;47.566;19.056;2022-12-19T14:13:03;19.40;;;11.30;;
65822;SDS011;52585;47.566;19.056;2022-12-19T14:15:50;20.10;;;11.50;;
65822;SDS011;52585;47.566;19.056;2022-12-19T14:18:25;21.80;;;11.40;;
65822;SDS011;52585;47.566;19.056;2022-12-19T14:23:37;19.20;;;10.80;;
65822;SDS011;52585;47.566;19.056;2022-12-19T14:26:05;21.00;;;10.80;;
65822;SDS011;52585;47.566;19.056;2022-12-19T14:28:38;19.50;;;11.40;;
65822;SDS011;52585;47.566;19.056;2022-12-19T14:31:14;21.80;;;11.20;;
65822;SDS011;52585;47.566;19.056;2022-12-19T14:33:44;20.10;;;11.20;;
65822;SDS011;52585;47.566;19.056;2022-12-19T14:36:18;18.30;;;10.30;;
65822;SDS011;52585;47.566;19.056;2022-12-19T14:38:49;19.00;;;10.10;;
65822;SDS011;52585;47.566;19.056;2022-12-19T14:46:35;17.80;;;9.80;;
65822;SDS011;52585;47.566;19.056;2022-12-19T14:49:18;20.20;;;10.60;;
65822;SDS011;52585;47.566;19.056;2022-12-19T14:51:48;18.70;;;11.00;;
65822;SDS011;52585;47.566;19.056;2022-12-19T14:54:22;24.40;;;12.50;;
65822;SDS011;52585;47.566;19.056;2022-12-19T14:56:49;24.50;;;12.90;;
65822;SDS011;52585;47.566;19.056;2022-12-19T14:59:28;26.10;;;14.40;;
65822;SDS011;52585;47.566;19.056;2022-12-19T15:05:13;18.20;;;10.90;;
65822;SDS011;52585;47.566;19.056;2022-12-19T15:07:43;21.50;;;11.20;;
65822;SDS011;52585;47.566;19.056;2022-12-19T15:10:22;18.70;;;11.50;;
65822;SDS011;52585;47.566;19.056;2022-12-19T15:15:39;17.90;;;10.40;;
65822;SDS011;52585;47.566;19.056;2022-12-19T15:20:52;21.30;;;11.80;;
65822;SDS011;52585;47.566;19.056;2022-12-19T15:23:20;20.20;;;12.10;;
65822;SDS011;52585;47.566;19.056;2022-12-19T15:25:46;23.00;;;13.00;;
65822;SDS011;52585;47.566;19.056;2022-12-19T15:28:15;22.70;;;12.10;;
65822;SDS011;52585;47.566;19.056;2022-12-19T15:30:49;24.40;;;12.90;;
65822;SDS011;52585;47.566;19.056;2022-12-19T15:33:18;22.30;;;13.00;;
65822;SDS011;52585;47.566;19.056;2022-12-19T15:35:43;23.80;;;13.60;;
65822;SDS011;52585;47.566;19.056;2022-12-19T15:38:09;26.90;;;13.80;;
65822;SDS011;52585;47.566;19.056;2022-12-19T15:40:37;22.00;;;11.80;;
65822;SDS011;52585;47.566;19.056;2022-12-19T15:43:05;22.50;;;12.80;;
65822;SDS011;52585;47.566;19.056;2022-12-19T15:45:31;24.70;;;12.30;;
65822;SDS011;52585;47.566;19.056;2022-12-19T15:47:58;21.50;;;12.80;;
65822;SDS011;52585;47.566;19.056;2022-12-19T15:50:26;22.70;;;12.10;;
65822;SDS011;52585;47.566;19.056;2022-12-19T15:52:58;19.40;;;11.60;;
65822;SDS011;52585;47.566;19.056;2022-12-19T15:55:27;26.20;;;13.20;;
65822;SDS011;52585;47.566;19.056;2022-12-19T15:57:59;20.70;;;12.30;;
65822;SDS011;52585;47.566;19.056;2022-12-19T16:00:31;22.40;;;12.80;;
65822;SDS011;52585;47.566;19.056;2022-12-19T16:02:59;19.30;;;11.50;;
65822;SDS011;52585;47.566;19.056;2022-12-19T16:05:25;19.90;;;11.70;;
65822;SDS011;52585;47.566;19.056;2022-12-19T16:07:53;21.00;;;12.40;;
65822;SDS011;52585;47.566;19.056;2022-12-19T16:10:20;21.80;;;11.50;;
65822;SDS011;52585;47.566;19.056;2022-12-19T16:12:54;20.70;;;11.50;;
65822;SDS011;52585;47.566;19.056;2022-12-19T16:15:26;22.20;;;11.90;;
65822;SDS011;52585;47.566;19.056;2022-12-19T16:17:55;25.60;;;14.00;;
65822;SDS011;52585;47.566;19.056;2022-12-19T16:20:27;28.50;;;14.00;;
65822;SDS011;52585;47.566;19.056;2022-12-19T16:22:55;25.40;;;14.40;;
65822;SDS011;52585;47.566;19.056;2022-12-19T16:25:32;21.10;;;12.60;;
65822;SDS011;52585;47.566;19.056;2022-12-19T16:27:58;23.30;;;12.10;;
65822;SDS011;52585;47.566;19.056;2022-12-19T16:30:29;22.10;;;13.10;;
65822;SDS011;52585;47.566;19.056;2022-12-19T16:32:57;20.90;;;11.60;;
65822;SDS011;52585;47.566;19.056;2022-12-19T16:35:24;21.30;;;12.00;;
65822;SDS011;52585;47.566;19.056;2022-12-19T16:37:51;22.00;;;12.30;;